Time;durP1;ratioP1;P1;durP2;ratioP2;P2;SDS_P1;SDS_P2;PMS_P1;PMS_P2;Temp;Humidity;BMP_temperature;BMP_pressure;BME280_temperature;BME280_humidity;BME280_pressure;Samples;Min_cycle;Max_cycle;Signal;HPM_P1;HPM_P2
2023/03/15 00:01:26;;;;;;;4.30;1.65;;;;;;;4.87;65.98;100404.34;4169605;28;20107;-67
2023/03/15 00:03:29;;;;;;;7.15;1.80;;;;;;;4.84;65.72;100401.66;4168110;28;20416;-66
2023/03/15 00:05:33;;;;;;;7.57;2.00;;;;;;;4.87;65.84;100411.19;4166421;28;20041;-66
2023/03/15 00:07:36;;;;;;;4.55;1.55;;;;;;;4.80;65.75;100410.06;4163340;28;20037;-66
2023/03/15 00:09:39;;;;;;;3.80;1.48;;;;;;;4.78;65.52;100413.44;4161206;28;20044;-66
2023/03/15 00:11:42;;;;;;;5.18;1.75;;;;;;;4.76;65.17;100415.06;4171368;28;20041;-65
2023/03/15 00:13:45;;;;;;;6.93;1.73;;;;;;;4.78;65.14;100421.16;4165239;28;20041;-65
2023/03/15 00:15:50;;;;;;;8.18;1.48;;;;;;;4.77;64.87;100428.00;4164819;28;20041;-65
2023/03/15 00:17:53;;;;;;;;;;;;;;;4.68;64.71;100436.25;4164654;28;20447;-66
2023/03/15 00:19:56;;;;;;;5.85;1.50;;;;;;;4.61;64.90;100435.97;4180886;28;19948;-66
2023/03/15 00:22:00;;;;;;;4.57;1.42;;;;;;;4.53;64.79;100440.84;4163906;28;20038;-66
2023/03/15 00:24:03;;;;;;;5.47;1.20;;;;;;;4.48;64.88;100444.91;4171462;28;20053;-66
2023/03/15 00:26:06;;;;;;;4.97;1.52;;;;;;;4.47;65.10;100444.06;4169200;28;20065;-67
2023/03/15 00:28:09;;;;;;;3.08;1.33;;;;;;;4.51;64.81;100451.09;4159730;28;20038;-66
2023/03/15 00:30:12;;;;;;;8.88;1.95;;;;;;;4.41;65.07;100451.53;4167926;28;20567;-66
2023/03/15 00:32:15;;;;;;;4.88;1.60;;;;;;;4.32;65.22;100464.94;4167173;28;20471;-66
2023/03/15 00:34:23;;;;;;;4.22;1.30;;;;;;;4.35;64.84;100464.16;4168264;28;20045;-66
2023/03/15 00:36:27;;;;;;;4.43;1.33;;;;;;;4.31;64.99;100464.88;4185592;28;20054;-66
2023/03/15 00:38:32;;;;;;;3.35;1.02;;;;;;;4.32;65.06;100464.03;4167893;28;20071;-67
2023/03/15 00:40:36;;;;;;;3.38;1.25;;;;;;;4.35;65.08;100457.31;4167796;28;20060;-67
2023/03/15 00:42:39;;;;;;;7.88;1.65;;;;;;;4.40;65.03;100464.34;4181231;28;20082;-66
2023/03/15 00:44:43;;;;;;;3.92;1.73;;;;;;;4.34;64.57;100465.00;4169162;28;20041;-67
2023/03/15 00:46:45;;;;;;;4.97;1.40;;;;;;;4.27;64.66;100470.72;4166978;28;20037;-67
2023/03/15 00:48:49;;;;;;;6.38;2.08;;;;;;;4.18;64.69;100476.38;4165164;28;20041;-67
2023/03/15 00:51:02;;;;;;;5.72;1.27;;;;;;;4.16;64.86;100476.31;4171090;28;20041;-67
2023/03/15 00:53:05;;;;;;;5.03;1.38;;;;;;;4.17;64.86;100480.63;4158696;28;20550;-67
2023/03/15 00:55:13;;;;;;;4.68;1.23;;;;;;;4.14;65.13;100483.06;4172557;28;20084;-67
2023/03/15 00:57:16;;;;;;;6.05;1.20;;;;;;;4.11;64.77;100482.94;4170433;28;20033;-67
2023/03/15 00:59:20;;;;;;;6.05;1.60;;;;;;;4.04;65.28;100482.66;4160500;28;20072;-67
2023/03/15 01:01:26;;;;;;;8.38;1.70;;;;;;;4.05;65.33;100489.56;4167046;28;20092;-67
2023/03/15 01:03:29;;;;;;;3.72;1.10;;;;;;;3.93;65.30;100487.31;4170211;28;20083;-67
2023/03/15 01:05:32;;;;;;;4.22;1.30;;;;;;;3.86;65.73;100486.22;4160208;28;20049;-68
2023/03/15 01:07:35;;;;;;;3.70;1.30;;;;;;;3.88;65.92;100494.00;4171666;28;20095;-67
2023/03/15 01:09:39;;;;;;;4.40;1.73;;;;;;;3.80;66.22;100488.53;4168865;28;20025;-67
2023/03/15 01:11:43;;;;;;;4.68;1.35;;;;;;;3.66;66.40;100491.41;4186499;28;20040;-67
2023/03/15 01:13:47;;;;;;;5.25;1.52;;;;;;;3.65;66.64;100496.44;4162079;28;20037;-67
2023/03/15 01:15:50;;;;;;;3.33;1.38;;;;;;;3.73;66.98;100501.94;4164264;28;20045;-67
2023/03/15 01:17:55;;;;;;;3.53;1.40;;;;;;;3.80;66.67;100506.53;4176372;28;20691;-67
2023/03/15 01:19:59;;;;;;;3.08;1.45;;;;;;;3.78;66.35;100501.34;4162913;28;20045;-67
2023/03/15 01:22:03;;;;;;;5.85;1.58;;;;;;;3.72;67.26;100505.31;4164651;28;20404;-67
2023/03/15 01:24:06;;;;;;;6.90;1.30;;;;;;;3.72;67.11;100510.47;4178365;28;20404;-67
2023/03/15 01:26:12;;;;;;;5.15;1.50;;;;;;;3.82;67.41;100507.47;4160201;28;20076;-67
2023/03/15 01:28:16;;;;;;;2.03;1.20;;;;;;;3.97;66.41;100502.06;4158346;28;20033;-67
2023/03/15 01:30:19;;;;;;;3.72;1.50;;;;;;;3.96;66.18;100508.06;4160078;28;20041;-67
2023/03/15 01:32:23;;;;;;;3.90;1.50;;;;;;;4.01;66.32;100515.13;4159774;28;20061;-68
2023/03/15 01:34:26;;;;;;;4.25;1.60;;;;;;;4.04;66.60;100510.94;4176011;28;20042;-67
2023/03/15 01:36:29;;;;;;;7.28;2.17;;;;;;;4.04;66.57;100504.09;4170085;28;20049;-67
2023/03/15 01:38:33;;;;;;;3.95;1.73;;;;;;;4.01;66.16;100515.13;4140547;28;20038;-67
2023/03/15 01:40:41;;;;;;;4.07;1.42;;;;;;;4.04;66.01;100511.81;4138737;28;20088;-67
2023/03/15 01:43:11;;;;;;;4.85;1.75;;;;;;;3.96;65.68;100515.78;4176117;28;20123;-67
2023/03/15 01:45:48;;;;;;;5.63;1.67;;;;;;;3.94;66.51;100509.66;4151691;28;20057;-67
2023/03/15 01:47:52;;;;;;;5.97;1.75;;;;;;;4.03;66.33;100515.22;4154938;28;20096;-67
2023/03/15 01:50:02;;;;;;;5.50;1.92;;;;;;;4.10;66.51;100524.91;4177390;28;20037;-67
2023/03/15 01:52:06;;;;;;;8.02;1.50;;;;;;;4.10;66.29;100529.19;4175728;28;20068;-67
2023/03/15 01:54:33;;;;;;;6.53;1.63;;;;;;;3.96;66.24;100526.06;4155337;28;20038;-67
2023/03/15 01:56:40;;;;;;;4.35;2.30;;;;;;;3.74;66.19;100530.28;4171946;28;20036;-67
2023/03/15 01:58:45;;;;;;;8.77;2.10;;;;;;;3.76;66.86;100528.66;4154728;28;20044;-67
2023/03/15 02:00:49;;;;;;;5.43;2.00;;;;;;;3.62;66.83;100532.31;4148418;28;20056;-67
2023/03/15 02:02:58;;;;;;;6.55;2.03;;;;;;;3.62;66.91;100529.75;4158839;28;20037;-67
2023/03/15 02:05:10;;;;;;;7.75;2.15;;;;;;;3.51;67.55;100537.00;4160147;28;20037;-67
2023/03/15 02:07:15;;;;;;;6.78;2.10;;;;;;;3.48;67.37;100527.47;4159491;28;20204;-67
2023/03/15 02:09:20;;;;;;;6.53;2.13;;;;;;;3.53;67.73;100534.50;4138953;28;20096;-67
2023/03/15 02:11:26;;;;;;;7.43;2.35;;;;;;;3.52;67.51;100535.31;4160097;28;20053;-68
2023/03/15 02:13:33;;;;;;;5.38;1.98;;;;;;;3.49;67.70;100534.38;4147531;28;20042;-67
2023/03/15 02:15:45;;;;;;;4.32;1.55;;;;;;;3.41;67.38;100539.97;4158424;28;20063;-67
2023/03/15 02:17:54;;;;;;;3.97;1.30;;;;;;;3.39;67.72;100537.34;4154894;28;20068;-67
2023/03/15 02:20:05;;;;;;;4.03;1.50;;;;;;;3.39;68.39;100536.44;4152721;28;20037;-67
2023/03/15 02:22:27;;;;;;;5.15;1.70;;;;;;;3.37;67.74;100538.94;4138039;28;20121;-71
2023/03/15 02:24:42;;;;;;;3.97;1.08;;;;;;;3.44;68.15;100540.97;4114611;28;20499;-70
2023/03/15 02:26:49;;;;;;;4.70;1.63;;;;;;;3.47;68.03;100541.09;4124190;28;20046;-70
2023/03/15 02:28:55;;;;;;;5.53;1.75;;;;;;;3.51;68.03;100541.28;4122790;28;20127;-70
2023/03/15 02:30:58;;;;;;;8.52;1.90;;;;;;;3.47;67.56;100548.81;4111027;28;20049;-70
2023/03/15 02:33:07;;;;;;;4.00;1.60;;;;;;;3.38;67.98;100560.41;4098385;28;20070;-70
2023/03/15 02:35:10;;;;;;;10.93;2.40;;;;;;;3.23;68.36;100558.03;4113534;28;20049;-70
2023/03/15 02:37:13;;;;;;;5.22;1.90;;;;;;;3.28;68.18;100549.69;4119429;28;20031;-70
2023/03/15 02:39:18;;;;;;;6.22;1.90;;;;;;;3.38;68.48;100561.28;4106509;28;20054;-70
2023/03/15 02:41:26;;;;;;;9.85;2.13;;;;;;;3.48;68.17;100567.72;4121474;28;20137;-71
2023/03/15 02:43:32;;;;;;;8.00;2.42;;;;;;;3.54;68.52;100574.81;4106451;28;20125;-71
2023/03/15 02:45:38;;;;;;;5.97;2.60;;;;;;;3.47;68.22;100569.38;4114469;28;20105;-70
2023/03/15 02:47:41;;;;;;;12.18;3.95;;;;;;;3.40;67.97;100574.19;4123718;28;20046;-70
2023/03/15 02:49:50;;;;;;;13.15;2.95;;;;;;;3.36;68.73;100573.19;4122234;28;20047;-70
2023/03/15 02:51:52;;;;;;;12.45;3.00;;;;;;;3.23;68.10;100586.28;4122040;28;20121;-70
2023/03/15 02:53:56;;;;;;;15.52;2.90;;;;;;;3.13;68.65;100592.69;4101256;28;20065;-70
2023/03/15 02:56:00;;;;;;;;;;;;;;;3.03;68.74;100583.66;4102978;28;20090;-71
2023/03/15 02:58:03;;;;;;;9.93;3.38;;;;;;;2.94;69.39;100593.50;4098071;28;20017;-70
2023/03/15 03:00:13;;;;;;;7.85;3.45;;;;;;;2.91;69.13;100598.50;4091821;29;20098;-70
2023/03/15 03:02:17;;;;;;;11.95;3.50;;;;;;;2.92;69.16;100595.13;4087757;29;20044;-70
2023/03/15 03:04:20;;;;;;;12.23;3.00;;;;;;;2.91;69.17;100594.25;4116231;28;20085;-71
2023/03/15 03:06:23;;;;;;;8.23;2.50;;;;;;;2.82;68.92;100593.81;4111557;28;20137;-69
2023/03/15 03:08:26;;;;;;;6.90;2.33;;;;;;;2.64;69.26;100604.06;4093257;28;20066;-70
2023/03/15 03:10:29;;;;;;;8.43;2.05;;;;;;;2.63;69.66;100604.88;4111238;28;20073;-70
2023/03/15 03:12:33;;;;;;;5.15;1.67;;;;;;;2.70;69.82;100603.47;4103697;28;20047;-69
2023/03/15 03:14:36;;;;;;;3.50;1.60;;;;;;;2.78;69.17;100609.88;4106150;28;20288;-70
2023/03/15 03:16:45;;;;;;;5.13;1.75;;;;;;;2.65;69.42;100605.84;4106365;28;20515;-70
2023/03/15 03:18:50;;;;;;;9.85;2.25;;;;;;;2.55;69.12;100617.31;4115319;28;20069;-71
2023/03/15 03:20:56;;;;;;;5.55;2.28;;;;;;;2.53;69.71;100620.66;4094702;28;20040;-70
2023/03/15 03:23:04;;;;;;;11.25;3.10;;;;;;;2.63;69.61;100620.28;4118284;28;20057;-70
2023/03/15 03:25:09;;;;;;;12.82;3.20;;;;;;;2.72;69.35;100622.44;4104568;28;20494;-71
2023/03/15 03:27:13;;;;;;;;;;;;;;;2.64;69.89;100624.59;4104390;28;20084;-71
2023/03/15 03:29:18;;;;;;;;;;;;;;;2.64;70.60;100634.88;4114215;28;19926;-70
2023/03/15 03:31:25;;;;;;;9.55;2.80;;;;;;;2.74;69.79;100626.81;4093274;28;20333;-71
2023/03/15 03:33:29;;;;;;;10.65;3.10;;;;;;;2.76;69.57;100627.78;4120085;28;20189;-71
2023/03/15 03:35:33;;;;;;;8.65;2.92;;;;;;;2.87;70.00;100622.28;4104525;28;20038;-70
2023/03/15 03:37:37;;;;;;;9.80;2.45;;;;;;;2.98;69.40;100621.09;4101782;28;20035;-70
2023/03/15 03:39:48;;;;;;;8.68;2.40;;;;;;;2.94;68.91;100634.59;4099137;28;20054;-70
2023/03/15 03:41:51;;;;;;;5.82;1.83;;;;;;;2.89;68.88;100628.34;4096937;28;20070;-70
2023/03/15 03:43:55;;;;;;;6.22;2.30;;;;;;;2.85;68.96;100639.28;4119709;28;20065;-70
2023/03/15 03:45:58;;;;;;;5.38;2.00;;;;;;;2.81;68.81;100633.13;4089167;29;20047;-69
2023/03/15 03:48:02;;;;;;;9.55;2.67;;;;;;;2.82;69.33;100634.00;4112259;28;20055;-70
2023/03/15 03:50:07;;;;;;;;;;;;;;;2.82;68.37;100634.91;4110240;28;20559;-70
2023/03/15 03:52:11;;;;;;;7.78;2.22;;;;;;;2.90;68.92;100635.25;4118072;28;19973;-70
2023/03/15 03:54:14;;;;;;;10.73;2.55;;;;;;;3.05;69.17;100638.56;4118454;28;20121;-71
2023/03/15 03:56:19;;;;;;;9.25;2.72;;;;;;;3.16;68.63;100640.75;4103086;28;20138;-70
2023/03/15 03:58:22;;;;;;;6.57;2.20;;;;;;;3.23;68.07;100632.53;4101522;28;20039;-71
2023/03/15 04:00:40;;;;;;;6.95;2.28;;;;;;;3.17;67.80;100632.22;4117617;28;20134;-70
2023/03/15 04:02:44;;;;;;;5.65;2.38;;;;;;;3.16;68.00;100640.75;4097736;28;20042;-71
2023/03/15 04:04:50;;;;;;;5.07;1.88;;;;;;;3.21;67.39;100637.56;4103570;28;20039;-70
2023/03/15 04:06:55;;;;;;;7.15;1.90;;;;;;;3.24;67.54;100645.44;4111498;28;20046;-71
2023/03/15 04:09:05;;;;;;;4.00;1.70;;;;;;;3.24;67.43;100650.59;4120208;28;20095;-71
2023/03/15 04:11:16;;;;;;;5.22;2.00;;;;;;;3.24;67.97;100652.25;4112040;28;20113;-70
2023/03/15 04:13:24;;;;;;;7.63;1.63;;;;;;;3.27;67.69;100653.28;4119045;28;20074;-71
2023/03/15 04:15:28;;;;;;;9.95;1.83;;;;;;;3.24;67.62;100653.16;4105375;28;20122;-71
2023/03/15 04:17:30;;;;;;;7.18;1.90;;;;;;;3.24;67.95;100649.69;4111613;28;20470;-70
2023/03/15 04:19:33;;;;;;;4.82;2.05;;;;;;;3.22;67.97;100652.19;4107762;28;20133;-71
2023/03/15 04:21:37;;;;;;;4.95;1.80;;;;;;;3.24;67.79;100660.88;4123013;28;20046;-71
2023/03/15 04:23:51;;;;;;;5.50;2.03;;;;;;;3.12;67.71;100653.44;4096145;28;20126;-71
2023/03/15 04:26:09;;;;;;;7.28;2.30;;;;;;;3.12;68.13;100648.28;4100444;28;20483;-71
2023/03/15 04:28:32;;;;;;;5.30;1.70;;;;;;;3.09;68.02;100655.84;4127707;28;20046;-71
2023/03/15 04:30:47;;;;;;;5.97;1.70;;;;;;;3.12;68.61;100656.00;4109707;28;20046;-70
2023/03/15 04:33:06;;;;;;;6.97;2.08;;;;;;;3.12;68.44;100650.00;4099537;28;20088;-70
2023/03/15 04:35:37;;;;;;;6.07;2.30;;;;;;;3.05;68.12;100656.53;4113519;28;20062;-70
2023/03/15 04:38:03;;;;;;;7.97;1.88;;;;;;;3.01;68.47;100662.34;4115772;28;20039;-70
2023/03/15 04:40:18;;;;;;;7.47;1.77;;;;;;;3.03;68.63;100664.97;4117144;28;20038;-70
2023/03/15 04:42:30;;;;;;;7.35;2.08;;;;;;;3.01;68.08;100667.47;4109038;28;20545;-70
2023/03/15 04:44:33;;;;;;;5.95;1.73;;;;;;;3.01;68.05;100666.56;4124172;28;20437;-70
2023/03/15 04:46:53;;;;;;;5.68;2.03;;;;;;;3.01;68.78;100670.03;4105722;28;20074;-71
2023/03/15 04:49:04;;;;;;;9.57;2.60;;;;;;;3.03;67.92;100676.13;4122223;28;20042;-70
2023/03/15 04:51:34;;;;;;;6.30;2.17;;;;;;;2.91;68.62;100670.41;4102356;28;20565;-71
2023/03/15 04:53:56;;;;;;;10.75;2.28;;;;;;;2.82;68.82;100669.94;4108973;28;20039;-70
2023/03/15 04:56:21;;;;;;;;;;;;;;;2.81;69.34;100670.75;4113419;28;20387;-70
2023/03/15 04:58:46;;;;;;;4.32;1.88;;;;;;;2.75;68.97;100679.03;4096264;28;20414;-70
2023/03/15 05:01:09;;;;;;;7.60;2.55;;;;;;;2.79;69.52;100676.69;4118733;28;20054;-71
2023/03/15 05:03:28;;;;;;;7.85;2.55;;;;;;;2.86;68.60;100683.03;4081806;29;20055;-71
2023/03/15 05:05:57;;;;;;;6.72;2.65;;;;;;;2.85;69.56;100681.25;4108357;28;20400;-70
2023/03/15 05:08:17;;;;;;;7.10;2.60;;;;;;;2.90;69.19;100684.03;4104916;28;20038;-70
2023/03/15 05:10:44;;;;;;;6.97;2.92;;;;;;;2.86;69.33;100685.59;4118304;28;20101;-69
2023/03/15 05:13:00;;;;;;;8.10;2.88;;;;;;;2.87;69.67;100689.03;4095239;28;20447;-70
2023/03/15 05:15:22;;;;;;;11.90;3.00;;;;;;;2.89;69.86;100689.97;4114170;28;20043;-70
2023/03/15 05:17:48;;;;;;;7.93;2.70;;;;;;;2.88;70.83;100691.69;4092789;28;20045;-71
2023/03/15 05:20:11;;;;;;;7.22;2.90;;;;;;;3.73;75.37;100681.94;4124746;28;20074;-60
2023/03/15 05:22:24;;;;;;;8.13;3.10;;;;;;;4.71;76.12;100675.00;4109506;28;20235;-61
2023/03/15 05:24:54;;;;;;;6.10;2.67;;;;;;;5.28;71.70;100669.53;4096447;28;20126;-74
2023/03/15 05:27:08;;;;;;;6.85;3.53;;;;;;;5.04;68.17;100677.19;4095684;28;20558;-74
2023/03/15 05:29:21;;;;;;;6.43;2.90;;;;;;;4.67;67.61;100678.25;4097495;29;20094;-74
2023/03/15 05:31:40;;;;;;;7.53;3.05;;;;;;;4.23;67.51;100683.28;4098506;29;20367;-75
2023/03/15 05:34:03;;;;;;;11.75;3.95;;;;;;;3.89;68.61;100683.50;4123248;28;20129;-74
2023/03/15 05:36:21;;;;;;;7.50;3.10;;;;;;;3.67;69.28;100697.94;4126539;28;20146;-75
2023/03/15 05:38:42;;;;;;;5.63;2.65;;;;;;;3.56;69.40;100701.72;4116089;28;20068;-74
2023/03/15 05:40:58;;;;;;;5.97;2.92;;;;;;;3.59;68.81;100701.84;4103765;28;20115;-75
2023/03/15 05:43:21;;;;;;;7.50;2.85;;;;;;;3.49;69.77;100706.56;4115388;28;20470;-75
2023/03/15 05:45:51;;;;;;;10.63;3.63;;;;;;;3.43;69.49;100710.53;4113874;28;20477;-75
2023/03/15 05:48:15;;;;;;;9.63;3.97;;;;;;;3.43;69.65;100701.16;4109940;28;20814;-75
2023/03/15 05:50:28;;;;;;;9.20;3.45;;;;;;;3.40;69.73;100705.25;4122147;28;20541;-74
2023/03/15 05:52:40;;;;;;;7.82;3.42;;;;;;;3.42;69.97;100706.22;4119894;28;20494;-74
2023/03/15 05:54:59;;;;;;;7.75;2.83;;;;;;;3.38;70.09;100717.16;4102119;28;20121;-75
2023/03/15 05:57:21;;;;;;;9.10;3.25;;;;;;;3.31;70.07;100714.31;4115929;28;20042;-75
2023/03/15 05:59:46;;;;;;;;;;;;;;;3.25;70.42;100710.56;4118127;28;20414;-75
2023/03/15 06:02:15;;;;;;;11.75;4.53;;;;;;;3.21;70.10;100721.47;4116819;28;20024;-75
2023/03/15 06:04:36;;;;;;;11.82;3.55;;;;;;;3.27;69.61;100717.53;4101433;28;20039;-75
2023/03/15 06:06:40;;;;;;;12.10;3.58;;;;;;;3.27;69.67;100719.19;4102973;28;20047;-75
2023/03/15 06:08:45;;;;;;;13.02;4.43;;;;;;;3.30;69.80;100729.63;4098482;28;20471;-75
2023/03/15 06:10:47;;;;;;;9.80;3.97;;;;;;;3.34;69.87;100723.81;4115141;28;20521;-75
2023/03/15 06:12:51;;;;;;;8.77;3.38;;;;;;;3.37;69.30;100723.97;4113611;28;20080;-75
2023/03/15 06:14:54;;;;;;;14.52;3.80;;;;;;;3.43;69.54;100736.22;4102275;28;20039;-75
2023/03/15 06:16:57;;;;;;;8.95;3.65;;;;;;;3.52;69.39;100735.78;4093207;28;20123;-75
2023/03/15 06:19:02;;;;;;;6.40;3.05;;;;;;;3.51;68.71;100741.75;4118276;28;20477;-75
2023/03/15 06:21:07;;;;;;;10.48;4.35;;;;;;;3.52;69.06;100746.97;4111030;28;20062;-75
2023/03/15 06:23:10;;;;;;;10.43;3.42;;;;;;;3.52;69.26;100740.94;4097711;28;20130;-75
2023/03/15 06:25:20;;;;;;;6.75;2.92;;;;;;;3.57;69.20;100742.91;4106164;28;20047;-75
2023/03/15 06:27:23;;;;;;;11.32;3.50;;;;;;;3.55;69.84;100748.78;4084162;29;20052;-75
2023/03/15 06:29:28;;;;;;;10.75;3.30;;;;;;;3.56;69.88;100745.41;4104984;28;20039;-75
2023/03/15 06:31:32;;;;;;;8.35;3.80;;;;;;;3.57;69.99;100750.63;4113572;28;20043;-75
2023/03/15 06:33:39;;;;;;;5.57;3.00;;;;;;;3.63;69.68;100750.91;4110813;28;20455;-75
2023/03/15 06:35:45;;;;;;;7.15;3.10;;;;;;;3.67;70.04;100751.94;4090885;28;20066;-74
2023/03/15 06:37:51;;;;;;;9.38;3.53;;;;;;;3.69;70.17;100755.44;4115315;28;20446;-75
2023/03/15 06:39:54;;;;;;;6.85;3.33;;;;;;;3.75;69.69;100757.44;4098239;29;20051;-75
2023/03/15 06:42:01;;;;;;;8.27;3.40;;;;;;;3.73;69.37;100766.78;4090752;29;20434;-75
2023/03/15 06:44:05;;;;;;;10.52;3.30;;;;;;;3.70;68.98;100767.50;4095807;29;20038;-75
2023/03/15 06:46:09;;;;;;;12.20;4.00;;;;;;;3.79;68.74;100770.50;4098484;28;20031;-75
2023/03/15 06:48:13;;;;;;;6.85;3.13;;;;;;;3.80;68.57;100767.13;4116321;28;20321;-75
2023/03/15 06:50:17;;;;;;;9.80;4.25;;;;;;;3.86;68.61;100763.97;4100841;28;20478;-75
2023/03/15 06:52:19;;;;;;;9.80;4.15;;;;;;;3.93;68.46;100770.25;4108683;28;20064;-75
2023/03/15 06:54:24;;;;;;;8.20;4.20;;;;;;;3.93;68.59;100771.16;4115372;28;20035;-75
2023/03/15 06:56:27;;;;;;;10.20;3.45;;;;;;;3.97;68.51;100774.72;4115648;28;20039;-75
2023/03/15 06:58:30;;;;;;;6.60;2.83;;;;;;;3.98;68.37;100781.66;4114486;28;20143;-75
2023/03/15 07:00:32;;;;;;;12.00;6.40;;;;;;;4.06;68.31;100775.16;4114546;28;20049;-75
2023/03/15 07:02:36;;;;;;;10.00;3.70;;;;;;;4.04;68.29;100787.06;4118954;28;20093;-75
2023/03/15 07:04:39;;;;;;;8.45;4.05;;;;;;;3.98;67.42;100782.50;4100522;28;20130;-75
2023/03/15 07:06:42;;;;;;;8.70;3.15;;;;;;;3.92;67.55;100776.22;4109024;28;20050;-75
2023/03/15 07:08:45;;;;;;;12.43;4.47;;;;;;;3.88;67.71;100785.47;4114013;28;20077;-75
2023/03/15 07:10:52;;;;;;;11.13;3.97;;;;;;;3.91;68.22;100784.75;4115348;28;20556;-75
2023/03/15 07:12:54;;;;;;;12.05;3.85;;;;;;;3.97;67.70;100779.88;4121055;28;20457;-75
2023/03/15 07:14:57;;;;;;;11.73;4.03;;;;;;;4.04;67.96;100792.22;4105197;28;20042;-75
2023/03/15 07:17:00;;;;;;;9.50;3.40;;;;;;;3.98;67.63;100791.94;4117222;28;20082;-74
2023/03/15 07:19:03;;;;;;;9.57;3.75;;;;;;;3.88;67.78;100795.75;4115305;28;20038;-75
2023/03/15 07:21:07;;;;;;;9.82;3.63;;;;;;;3.90;67.98;100798.41;4096945;29;20039;-75
2023/03/15 07:23:09;;;;;;;10.27;3.60;;;;;;;3.78;66.91;100804.75;4111373;28;20035;-74
2023/03/15 07:25:13;;;;;;;8.48;3.58;;;;;;;3.76;67.39;100798.66;4092019;29;20075;-74
2023/03/15 07:27:17;;;;;;;8.75;3.53;;;;;;;3.82;67.86;100806.63;4115307;28;20125;-74
2023/03/15 07:29:21;;;;;;;11.65;3.67;;;;;;;3.94;67.84;100808.03;4115561;28;20525;-74
2023/03/15 07:31:24;;;;;;;8.90;3.47;;;;;;;4.07;67.72;100807.78;4118419;28;20410;-74
2023/03/15 07:33:28;;;;;;;12.88;4.00;;;;;;;4.13;67.83;100812.34;4097197;28;20130;-74
2023/03/15 07:35:31;;;;;;;10.65;3.65;;;;;;;4.16;67.08;100817.63;4112468;28;20130;-73
2023/03/15 07:37:34;;;;;;;14.15;3.50;;;;;;;4.15;67.00;100824.47;4113784;28;20031;-73
2023/03/15 07:39:37;;;;;;;9.13;3.85;;;;;;;4.19;66.84;100818.66;4117560;28;20046;-74
2023/03/15 07:41:40;;;;;;;10.13;4.35;;;;;;;4.30;67.42;100819.13;4105005;28;20050;-73
2023/03/15 07:43:56;;;;;;;21.05;4.13;;;;;;;4.24;66.35;100818.00;4097610;28;20094;-73
2023/03/15 07:46:00;;;;;;;10.55;3.63;;;;;;;4.06;65.78;100820.56;4105380;28;20035;-74
2023/03/15 07:48:03;;;;;;;13.20;4.00;;;;;;;4.17;66.33;100829.69;4105220;28;20044;-73
2023/03/15 07:50:07;;;;;;;15.13;4.95;;;;;;;4.31;66.16;100827.75;4114093;28;20506;-75
2023/03/15 07:52:10;;;;;;;12.70;2.88;;;;;;;4.35;65.88;100821.91;4119096;28;20043;-73
2023/03/15 07:54:13;;;;;;;13.30;2.90;;;;;;;4.43;65.74;100823.16;4115080;28;20038;-74
2023/03/15 07:56:16;;;;;;;11.45;4.05;;;;;;;4.35;65.46;100824.47;4119453;28;20133;-74
2023/03/15 07:58:19;;;;;;;11.95;3.40;;;;;;;4.35;65.27;100822.81;4099263;29;20054;-74
2023/03/15 08:00:24;;;;;;;10.52;2.80;;;;;;;4.45;65.42;100816.34;4114710;28;20089;-74
2023/03/15 08:02:27;;;;;;;;;;;;;;;4.26;64.40;100817.22;4106272;28;20071;-73
2023/03/15 08:04:32;;;;;;;17.30;3.63;;;;;;;4.33;65.13;100816.69;4116699;28;19922;-74
2023/03/15 08:06:38;;;;;;;12.52;3.50;;;;;;;4.47;65.38;100819.03;4117262;28;20070;-74
2023/03/15 08:08:41;;;;;;;8.30;2.50;;;;;;;4.58;64.72;100827.22;4113580;28;20406;-75
2023/03/15 08:10:46;;;;;;;5.70;2.33;;;;;;;4.58;65.20;100822.94;4123440;28;20045;-74
2023/03/15 08:12:48;;;;;;;;;;;;;;;4.55;63.88;100818.53;4115044;28;20410;-74
2023/03/15 08:14:51;;;;;;;5.43;2.22;;;;;;;4.52;64.17;100815.81;4116135;28;20420;-74
2023/03/15 08:16:56;;;;;;;11.27;2.67;;;;;;;4.62;64.83;100818.81;4116306;28;20041;-74
2023/03/15 08:18:59;;;;;;;14.73;3.38;;;;;;;4.62;64.84;100829.13;4117379;28;20134;-74
2023/03/15 08:21:02;;;;;;;7.32;2.67;;;;;;;4.74;64.41;100831.34;4115939;28;20055;-74
2023/03/15 08:23:07;;;;;;;12.83;2.30;;;;;;;4.76;64.58;100825.47;4138993;22;20468;-67
2023/03/15 08:25:11;;;;;;;7.13;2.40;;;;;;;4.82;63.78;100822.25;4148021;28;20042;-67
2023/03/15 08:27:14;;;;;;;12.98;3.58;;;;;;;4.77;63.13;100837.50;4137785;28;20079;-68
2023/03/15 08:29:17;;;;;;;9.38;2.50;;;;;;;4.79;63.69;100827.25;4138053;28;20046;-68
2023/03/15 08:31:20;;;;;;;7.40;2.90;;;;;;;4.79;64.11;100828.16;4144375;28;20046;-68
2023/03/15 08:33:27;;;;;;;8.63;3.30;;;;;;;4.81;64.34;100829.09;4141929;28;20138;-68
2023/03/15 08:35:33;;;;;;;7.72;2.90;;;;;;;4.85;63.90;100831.00;4137327;28;20097;-68
2023/03/15 08:37:35;;;;;;;10.00;3.33;;;;;;;4.77;63.31;100829.78;4136008;28;20037;-68
2023/03/15 08:39:38;;;;;;;11.95;3.28;;;;;;;4.75;63.62;100836.56;4128233;28;20035;-68
2023/03/15 08:41:42;;;;;;;8.40;3.20;;;;;;;4.72;63.75;100836.44;4130607;28;20501;-68
2023/03/15 08:43:45;;;;;;;9.73;3.13;;;;;;;4.74;63.98;100837.38;4144811;28;20044;-68
2023/03/15 08:45:48;;;;;;;14.25;4.03;;;;;;;4.60;63.90;100847.09;4140431;28;20563;-68
2023/03/15 08:48:03;;;;;;;9.93;3.83;;;;;;;4.61;64.36;100847.94;4137933;28;20486;-68
2023/03/15 08:50:12;;;;;;;15.85;4.50;;;;;;;4.51;64.37;100844.06;4129981;28;20043;-68
2023/03/15 08:52:14;;;;;;;8.00;4.05;;;;;;;4.47;64.31;100845.66;4132226;28;20042;-68
2023/03/15 08:54:20;;;;;;;10.63;4.05;;;;;;;4.44;64.95;100852.34;4134688;28;20057;-68
2023/03/15 08:56:23;;;;;;;8.50;4.18;;;;;;;4.54;65.42;100857.97;4141259;28;20088;-68
2023/03/15 08:58:26;;;;;;;15.68;4.55;;;;;;;4.63;65.42;100857.50;4139876;28;20042;-69
2023/03/15 09:00:28;;;;;;;9.88;3.90;;;;;;;4.67;65.47;100853.38;4135529;28;20121;-68
2023/03/15 09:02:34;;;;;;;9.50;3.85;;;;;;;4.49;64.60;100859.47;4131773;28;20048;-69
2023/03/15 09:04:38;;;;;;;8.43;3.72;;;;;;;4.33;65.34;100880.16;4148965;28;20042;-69
2023/03/15 09:06:42;;;;;;;10.25;5.18;;;;;;;4.14;65.27;100875.84;4135772;28;20041;-68
2023/03/15 09:08:45;;;;;;;8.55;3.97;;;;;;;3.83;66.31;100885.56;4146782;28;20042;-68
2023/03/15 09:10:48;;;;;;;12.10;2.90;;;;;;;3.78;67.22;100887.06;4149192;28;20132;-68
2023/03/15 09:12:52;;;;;;;14.55;3.30;;;;;;;3.73;67.59;100878.22;4130517;28;20045;-68
2023/03/15 09:14:55;;;;;;;10.50;3.58;;;;;;;3.62;68.39;100884.50;4135085;28;20456;-68
2023/03/15 09:16:58;;;;;;;8.85;3.35;;;;;;;3.52;68.80;100878.06;4131363;28;20053;-68
2023/03/15 09:19:01;;;;;;;9.43;3.70;;;;;;;3.53;68.81;100876.34;4139368;28;20042;-67
2023/03/15 09:21:05;;;;;;;7.93;3.08;;;;;;;3.59;68.88;100882.69;4134567;28;20038;-68
2023/03/15 09:23:09;;;;;;;4.10;2.28;;;;;;;3.69;69.18;100886.56;4116215;28;20121;-67
2023/03/15 09:25:12;;;;;;;8.18;2.90;;;;;;;3.72;69.27;100886.72;4129214;28;20069;-68
2023/03/15 09:27:14;;;;;;;8.20;2.60;;;;;;;3.79;69.46;100885.34;4133807;28;20085;-68
2023/03/15 09:29:17;;;;;;;5.53;2.85;;;;;;;3.93;69.03;100889.47;4129733;28;20104;-68
2023/03/15 09:31:20;;;;;;;6.97;2.33;;;;;;;4.06;69.12;100893.50;4135482;28;20042;-68
2023/03/15 09:33:24;;;;;;;6.00;2.90;;;;;;;4.14;68.86;100894.75;4137177;28;20042;-67
2023/03/15 09:35:28;;;;;;;14.32;4.03;;;;;;;4.19;69.17;100895.84;4138186;28;20457;-68
2023/03/15 09:37:31;;;;;;;11.20;5.05;;;;;;;4.18;68.23;100904.38;4136352;28;20034;-68
2023/03/15 09:39:35;;;;;;;9.23;4.03;;;;;;;4.03;68.52;100908.81;4132121;28;20061;-67
2023/03/15 09:41:42;;;;;;;5.72;2.85;;;;;;;3.78;68.72;100910.19;4114799;28;20074;-68
2023/03/15 09:44:08;;;;;;;14.40;4.57;;;;;;;3.60;70.25;100907.56;4133245;28;20042;-67
2023/03/15 09:46:26;;;;;;;10.90;3.22;;;;;;;3.30;71.60;100918.09;4130270;28;20035;-67
2023/03/15 09:48:34;;;;;;;7.75;4.55;;;;;;;3.29;72.79;100910.31;4133326;28;20038;-67
2023/03/15 09:50:44;;;;;;;8.32;4.55;;;;;;;3.26;74.03;100911.03;4135783;28;20485;-68
2023/03/15 09:52:50;;;;;;;11.32;4.10;;;;;;;3.27;73.79;100912.81;4133402;28;20045;-68
2023/03/15 09:54:59;;;;;;;10.52;4.25;;;;;;;3.39;74.73;100921.91;4131784;28;20037;-67
2023/03/15 09:57:05;;;;;;;13.90;4.43;;;;;;;3.54;73.79;100927.84;4131586;28;20046;-67
2023/03/15 09:59:10;;;;;;;9.60;3.55;;;;;;;3.67;74.37;100925.06;4131360;28;20417;-67
2023/03/15 10:01:14;;;;;;;11.02;3.67;;;;;;;3.82;74.13;100924.94;4131551;28;20515;-67